createdAt,value
2019-02-16T00:00:23.884Z,12.80
2019-02-16T00:02:51.983Z,15.17
2019-02-16T00:05:20.399Z,15.47
2019-02-16T00:07:48.832Z,14.37
2019-02-16T00:10:17.262Z,16.30
2019-02-16T00:12:45.681Z,14.80
2019-02-16T00:15:14.098Z,14.90
2019-02-16T00:17:42.528Z,18.57
2019-02-16T00:20:10.964Z,14.63
2019-02-16T00:22:39.376Z,14.50
2019-02-16T00:25:07.784Z,12.00
2019-02-16T00:27:35.885Z,15.13
2019-02-16T00:30:05.632Z,16.53
2019-02-16T00:32:34.129Z,14.97
2019-02-16T00:35:02.273Z,15.97
2019-02-16T00:37:30.698Z,14.53
2019-02-16T00:39:59.113Z,18.27
2019-02-16T00:42:27.596Z,13.97
2019-02-16T00:44:56.011Z,15.63
2019-02-16T00:47:24.749Z,16.13
2019-02-16T00:49:53.755Z,14.90
2019-02-16T00:52:22.169Z,15.37
2019-02-16T00:54:50.586Z,14.07
2019-02-16T00:57:19.041Z,12.97
2019-02-16T00:59:47.494Z,14.67
2019-02-16T01:02:15.890Z,16.47
2019-02-16T01:04:44.313Z,15.30
2019-02-16T01:07:12.801Z,18.87
2019-02-16T01:09:41.225Z,12.10
2019-02-16T01:12:09.645Z,18.67
2019-02-16T01:14:38.072Z,18.73
2019-02-16T01:17:06.485Z,14.23
2019-02-16T01:19:34.912Z,13.23
2019-02-16T01:22:03.329Z,14.43
2019-02-16T01:24:31.751Z,14.20
2019-02-16T01:27:00.164Z,14.80
2019-02-16T01:29:28.589Z,14.87
2019-02-16T01:31:57.005Z,12.63
2019-02-16T01:34:25.432Z,15.07
2019-02-16T01:36:53.851Z,13.73
2019-02-16T01:39:22.281Z,14.13
2019-02-16T01:41:50.767Z,13.53
2019-02-16T01:44:19.180Z,14.10
2019-02-16T01:46:47.606Z,14.60
2019-02-16T01:49:16.033Z,14.87
2019-02-16T01:51:44.762Z,14.77
2019-02-16T01:54:13.188Z,13.97
2019-02-16T01:56:41.609Z,12.78
2019-02-16T01:59:10.032Z,14.60
2019-02-16T02:01:38.448Z,15.60
2019-02-16T02:04:06.880Z,12.73
2019-02-16T02:06:35.305Z,14.47
2019-02-16T02:09:04.673Z,13.97
2019-02-16T02:11:33.109Z,14.43
2019-02-16T02:14:01.530Z,10.80
2019-02-16T02:16:29.951Z,13.77
2019-02-16T02:18:58.653Z,11.93
2019-02-16T02:21:27.068Z,13.97
2019-02-16T02:23:55.822Z,14.63
2019-02-16T02:26:24.241Z,14.20
2019-02-16T02:28:52.674Z,12.35
2019-02-16T02:31:21.089Z,12.37
2019-02-16T02:33:49.517Z,14.67
2019-02-16T02:36:17.932Z,12.80
2019-02-16T02:38:46.713Z,14.57
2019-02-16T02:41:15.245Z,14.60
2019-02-16T02:43:44.494Z,14.80
2019-02-16T02:46:12.904Z,14.73
2019-02-16T02:48:41.660Z,11.90
2019-02-16T02:51:10.077Z,11.70
2019-02-16T02:53:38.506Z,12.07
2019-02-16T02:56:06.923Z,14.67
2019-02-16T02:58:35.365Z,13.00
2019-02-16T03:01:04.065Z,12.67
2019-02-16T03:03:32.480Z,12.17
2019-02-16T03:06:00.901Z,12.03
2019-02-16T03:08:29.611Z,11.37
2019-02-16T03:10:58.029Z,11.23
2019-02-16T03:13:26.451Z,14.07
2019-02-16T03:15:54.921Z,14.50
2019-02-16T03:18:23.346Z,11.50
2019-02-16T03:20:51.765Z,12.47
2019-02-16T03:23:20.634Z,15.47
2019-02-16T03:25:54.931Z,11.12
2019-02-16T03:28:42.872Z,12.73
2019-02-16T03:31:19.967Z,12.93
2019-02-16T03:33:51.478Z,11.85
2019-02-16T03:36:22.977Z,12.90
2019-02-16T03:38:54.801Z,16.57
2019-02-16T03:41:23.213Z,12.50
2019-02-16T03:43:51.644Z,12.53
2019-02-16T03:46:20.063Z,15.23
2019-02-16T03:48:48.505Z,12.28
2019-02-16T03:51:16.914Z,12.10
2019-02-16T03:53:45.339Z,12.30
2019-02-16T03:56:13.777Z,12.30
2019-02-16T03:58:42.192Z,10.87
2019-02-16T04:01:10.622Z,14.37
2019-02-16T04:03:39.057Z,11.87
2019-02-16T04:06:07.487Z,14.43
2019-02-16T04:08:35.910Z,12.30
2019-02-16T04:11:04.344Z,15.15
2019-02-16T04:13:32.774Z,17.02
2019-02-16T04:16:01.205Z,14.03
2019-02-16T04:18:29.636Z,15.08
2019-02-16T04:20:58.074Z,13.90
2019-02-16T04:23:26.498Z,16.40
2019-02-16T04:25:54.930Z,12.27
2019-02-16T04:28:23.353Z,14.73
2019-02-16T04:30:51.781Z,10.70
2019-02-16T04:33:20.210Z,17.45
2019-02-16T04:35:48.644Z,13.58
2019-02-16T04:38:17.068Z,14.15
2019-02-16T04:40:45.501Z,14.95
2019-02-16T04:43:13.921Z,14.68
2019-02-16T04:45:42.354Z,14.58
2019-02-16T04:48:11.050Z,12.58
2019-02-16T04:50:39.802Z,13.45
2019-02-16T04:53:08.220Z,13.58
2019-02-16T04:55:37.015Z,12.18
2019-02-16T04:58:05.430Z,12.30
2019-02-16T05:00:33.933Z,11.28
2019-02-16T05:03:02.357Z,11.70
2019-02-16T05:05:30.791Z,12.50
2019-02-16T05:07:59.212Z,10.10
2019-02-16T05:10:27.651Z,14.73
2019-02-16T05:12:56.063Z,12.50
2019-02-16T05:15:24.499Z,11.93
2019-02-16T05:17:52.912Z,12.98
2019-02-16T05:20:21.607Z,14.98
2019-02-16T05:22:50.025Z,16.53
2019-02-16T05:25:18.777Z,12.80
2019-02-16T05:27:47.209Z,11.50
2019-02-16T05:30:15.644Z,11.77
2019-02-16T05:32:44.071Z,12.75
2019-02-16T05:35:12.503Z,15.15
2019-02-16T05:37:40.920Z,13.08
2019-02-16T05:40:09.360Z,13.90
2019-02-16T05:42:37.772Z,15.55
2019-02-16T05:45:06.941Z,15.28
2019-02-16T05:47:35.363Z,12.75
2019-02-16T05:50:03.921Z,15.00
2019-02-16T05:52:32.344Z,12.20
2019-02-16T05:55:00.803Z,14.07
2019-02-16T05:57:29.283Z,12.88
2019-02-16T05:59:57.700Z,13.20
2019-02-16T06:02:26.130Z,12.43
2019-02-16T06:04:54.552Z,12.63
2019-02-16T06:07:22.980Z,13.58
2019-02-16T06:09:51.408Z,10.50
2019-02-16T06:12:19.840Z,11.28
2019-02-16T06:14:48.610Z,13.38
2019-02-16T06:17:17.045Z,11.30
2019-02-16T06:19:45.474Z,12.43
2019-02-16T06:22:14.161Z,12.25
2019-02-16T06:24:42.588Z,15.80
2019-02-16T06:27:11.012Z,13.58
2019-02-16T06:29:39.703Z,14.53
2019-02-16T06:32:08.136Z,14.07
2019-02-16T06:34:36.568Z,13.10
2019-02-16T06:37:06.634Z,14.43
2019-02-16T06:39:35.064Z,12.33
2019-02-16T06:42:03.848Z,15.13
2019-02-16T06:44:32.530Z,13.25
2019-02-16T06:47:00.967Z,13.95
2019-02-16T06:49:29.396Z,15.48
2019-02-16T06:51:58.153Z,13.55
2019-02-16T06:54:26.657Z,13.70
2019-02-16T06:57:02.743Z,12.75
2019-02-16T06:59:31.172Z,17.32
2019-02-16T07:02:00.242Z,13.65
2019-02-16T07:04:29.199Z,16.75
2019-02-16T07:06:57.841Z,16.47
2019-02-16T07:09:26.269Z,13.95
2019-02-16T07:11:54.711Z,14.05
2019-02-16T07:14:23.145Z,13.88
2019-02-16T07:17:02.189Z,13.53
2019-02-16T07:19:32.252Z,13.43
2019-02-16T07:22:01.316Z,16.42
2019-02-16T07:24:30.873Z,15.45
2019-02-16T07:26:59.387Z,15.17
2019-02-16T07:29:28.152Z,14.87
2019-02-16T07:31:56.598Z,14.87
2019-02-16T07:34:25.081Z,18.97
2019-02-16T07:36:54.824Z,18.17
2019-02-16T07:39:24.009Z,13.53
2019-02-16T07:41:53.155Z,16.30
2019-02-16T07:44:32.125Z,15.67
2019-02-16T07:47:05.346Z,22.43
2019-02-16T07:49:38.338Z,20.10
2019-02-16T07:52:11.308Z,19.80
2019-02-16T07:54:41.368Z,19.27
2019-02-16T07:57:12.373Z,19.73
2019-02-16T07:59:45.352Z,15.83
2019-02-16T08:02:50.992Z,15.67
2019-02-16T08:05:33.640Z,14.77
2019-02-16T08:08:03.700Z,17.10
2019-02-16T08:10:46.004Z,18.10
2019-02-16T08:13:19.044Z,16.23
2019-02-16T08:18:44.325Z,16.37
2019-02-16T08:21:20.305Z,16.83
2019-02-16T08:24:02.492Z,15.83
2019-02-16T08:26:47.648Z,16.17
2019-02-16T08:29:23.944Z,18.77
2019-02-16T08:32:02.871Z,16.73
2019-02-16T08:34:42.229Z,14.40
2019-02-16T08:37:27.393Z,23.40
2019-02-16T08:40:03.689Z,15.10
2019-02-16T08:42:33.409Z,16.17
2019-02-16T08:45:03.472Z,17.03
2019-02-16T08:47:36.249Z,16.07
2019-02-16T08:50:07.168Z,19.30
2019-02-16T08:52:36.896Z,17.30
2019-02-16T08:55:16.631Z,20.03
2019-02-16T08:57:55.104Z,16.77
2019-02-16T09:00:25.175Z,19.00
2019-02-16T09:03:13.468Z,17.20
2019-02-16T09:05:43.208Z,16.67
2019-02-16T09:08:25.274Z,17.17
2019-02-16T09:11:04.543Z,18.27
2019-02-16T09:16:25.210Z,17.10
2019-02-16T09:19:00.370Z,16.77
2019-02-16T09:21:45.475Z,18.53
2019-02-16T09:24:15.552Z,17.30
2019-02-16T09:26:51.065Z,19.80
2019-02-16T09:29:30.320Z,14.97
2019-02-16T09:32:00.382Z,16.07
2019-02-16T09:34:46.806Z,16.17
2019-02-16T09:37:16.860Z,18.77
2019-02-16T09:40:01.973Z,14.17
2019-02-16T09:42:32.028Z,16.00
2019-02-16T09:45:02.098Z,16.33
2019-02-16T09:47:40.903Z,17.23
2019-02-16T09:50:10.632Z,16.20
2019-02-16T09:52:43.221Z,19.20
2019-02-16T09:55:12.956Z,18.47
2019-02-16T09:57:59.209Z,18.20
2019-02-16T10:00:32.037Z,20.13
2019-02-16T10:03:02.088Z,18.40
2019-02-16T10:05:31.847Z,21.33
2019-02-16T10:08:04.885Z,18.13
2019-02-16T10:10:37.845Z,22.20
2019-02-16T10:13:10.550Z,22.27
2019-02-16T10:15:59.007Z,23.43
2019-02-16T10:18:40.527Z,20.70
2019-02-16T10:21:13.100Z,22.67
2019-02-16T10:23:43.159Z,23.20
2019-02-16T10:26:19.104Z,22.80
2019-02-16T10:28:52.333Z,22.13
2019-02-16T10:31:22.408Z,20.93
2019-02-16T10:33:55.116Z,22.33
2019-02-16T10:36:29.345Z,28.47
2019-02-16T10:39:08.376Z,24.97
2019-02-16T10:41:50.489Z,23.03
2019-02-16T10:44:26.153Z,24.13
2019-02-16T10:46:56.221Z,23.87
2019-02-16T10:49:31.808Z,25.97
2019-02-16T10:52:02.241Z,27.73
2019-02-16T10:54:35.249Z,23.30
2019-02-16T10:57:05.633Z,23.43
2019-02-16T10:59:50.727Z,24.40
2019-02-16T11:02:20.791Z,23.53
2019-02-16T11:04:56.915Z,24.80
2019-02-16T11:07:30.140Z,27.50
2019-02-16T11:10:02.957Z,23.10
2019-02-16T11:12:33.037Z,25.33
2019-02-16T11:15:11.823Z,26.80
2019-02-16T11:17:58.325Z,24.80
2019-02-16T11:20:46.424Z,24.07
2019-02-16T11:23:16.494Z,24.30
2019-02-16T11:25:52.461Z,25.50
2019-02-16T11:28:34.533Z,22.67
2019-02-16T11:31:13.569Z,27.47
2019-02-16T11:33:59.888Z,27.77
2019-02-16T11:36:39.028Z,25.10
2019-02-16T11:39:09.090Z,27.13
2019-02-16T11:41:41.868Z,25.07
2019-02-16T11:44:14.906Z,23.73
2019-02-16T11:47:01.482Z,23.83
2019-02-16T11:49:31.571Z,20.23
2019-02-16T11:52:10.399Z,25.77
2019-02-16T11:54:49.353Z,21.80
2019-02-16T11:57:31.723Z,23.03
2019-02-16T12:00:04.676Z,25.67
2019-02-16T12:02:39.664Z,27.40
2019-02-16T12:05:07.580Z,23.73
2019-02-16T12:07:54.683Z,22.63
2019-02-16T12:10:27.444Z,32.53
2019-02-16T12:12:57.518Z,25.93
2019-02-16T12:15:27.582Z,22.37
2019-02-16T12:18:00.879Z,22.10
2019-02-16T12:20:47.559Z,23.83
2019-02-16T12:23:17.637Z,22.93
2019-02-16T12:25:53.504Z,23.70
2019-02-16T12:28:29.388Z,24.43
2019-02-16T12:31:02.364Z,20.93
2019-02-16T12:33:50.524Z,21.03
2019-02-16T12:36:38.472Z,16.07
2019-02-16T12:39:20.502Z,21.03
2019-02-16T12:41:50.560Z,19.50
2019-02-16T12:44:20.929Z,22.63
2019-02-16T12:46:50.989Z,16.80
2019-02-16T12:49:37.545Z,20.70
2019-02-16T12:52:19.748Z,22.37
2019-02-16T12:54:55.648Z,21.53
2019-02-16T12:57:25.777Z,18.50
2019-02-16T13:00:04.885Z,16.47
2019-02-16T13:02:37.931Z,17.43
2019-02-16T13:07:52.437Z,18.67
2019-02-16T13:10:37.424Z,15.50
2019-02-16T13:13:07.502Z,17.73
2019-02-16T13:15:37.558Z,14.93
2019-02-16T13:18:13.517Z,15.17
2019-02-16T13:20:59.865Z,15.77
2019-02-16T13:23:32.584Z,15.57
2019-02-16T13:26:11.520Z,16.97
2019-02-16T13:28:44.488Z,14.40
2019-02-16T13:31:17.188Z,15.57
2019-02-16T13:33:47.273Z,14.43
2019-02-16T13:36:17.401Z,15.43
2019-02-16T13:38:53.476Z,16.50
2019-02-16T13:41:23.534Z,14.97
2019-02-16T13:43:53.600Z,13.50
2019-02-16T13:46:29.657Z,18.00
2019-02-16T13:49:02.372Z,16.13
2019-02-16T13:51:47.620Z,13.03
2019-02-16T13:54:17.682Z,11.73
2019-02-16T13:56:50.221Z,11.43
2019-02-16T13:59:22.992Z,12.43
2019-02-16T14:02:08.311Z,17.73
2019-02-16T14:04:41.449Z,14.80
2019-02-16T14:07:11.753Z,14.27
2019-02-16T14:09:53.976Z,10.80
2019-02-16T14:12:26.760Z,15.63
2019-02-16T14:14:56.822Z,18.03
2019-02-16T14:17:29.704Z,17.60
2019-02-16T14:19:58.137Z,13.23
2019-02-16T14:22:26.553Z,15.53
2019-02-16T14:24:56.943Z,14.17
2019-02-16T14:27:25.351Z,15.30
2019-02-16T14:29:53.800Z,15.37
2019-02-16T14:32:22.513Z,13.80
2019-02-16T14:34:50.940Z,14.00
2019-02-16T14:37:37.667Z,12.47
2019-02-16T14:40:07.530Z,14.60
2019-02-16T14:42:36.373Z,13.90
2019-02-16T14:45:07.945Z,13.87
2019-02-16T14:47:36.364Z,15.47
2019-02-16T14:50:07.126Z,13.50
2019-02-16T14:52:56.738Z,14.37
2019-02-16T14:55:25.182Z,15.10
2019-02-16T14:57:53.608Z,16.00
2019-02-16T15:00:22.045Z,10.07
2019-02-16T15:02:50.469Z,11.27
2019-02-16T15:05:18.922Z,11.77
2019-02-16T15:07:47.401Z,11.20
2019-02-16T15:10:15.898Z,10.77
2019-02-16T15:12:44.326Z,11.47
2019-02-16T15:15:12.748Z,10.37
2019-02-16T15:17:41.180Z,13.13
2019-02-16T15:20:12.318Z,11.03
2019-02-16T15:22:41.667Z,10.53
2019-02-16T15:25:11.534Z,12.03
2019-02-16T15:27:40.094Z,9.23
2019-02-16T15:30:11.129Z,7.07
2019-02-16T15:32:39.874Z,9.77
2019-02-16T15:35:27.923Z,11.17
2019-02-16T15:37:56.018Z,13.33
2019-02-16T15:40:24.433Z,11.83
2019-02-16T15:42:52.884Z,11.37
2019-02-16T15:45:20.968Z,11.03
2019-02-16T15:47:49.314Z,9.67
2019-02-16T15:50:17.749Z,14.07
2019-02-16T15:52:46.165Z,9.60
2019-02-16T15:55:14.863Z,10.53
2019-02-16T15:57:43.292Z,10.20
2019-02-16T16:00:18.317Z,13.90
2019-02-16T16:02:46.746Z,13.03
2019-02-16T16:05:15.216Z,13.73
2019-02-16T16:07:45.551Z,14.50
2019-02-16T16:10:27.761Z,11.63
2019-02-16T16:13:15.816Z,14.83
2019-02-16T16:15:48.601Z,13.43
2019-02-16T16:18:18.665Z,13.57
2019-02-16T16:20:51.129Z,13.60
2019-02-16T16:23:26.930Z,12.77
2019-02-16T16:25:56.653Z,12.43
2019-02-16T16:28:35.714Z,14.13
2019-02-16T16:31:06.092Z,13.40
2019-02-16T16:33:47.880Z,11.20
2019-02-16T16:36:34.164Z,12.23
2019-02-16T16:39:22.628Z,10.47
2019-02-16T16:42:04.115Z,12.90
2019-02-16T16:44:33.824Z,12.13
2019-02-16T16:47:20.314Z,13.80
2019-02-16T16:50:05.453Z,10.77
2019-02-16T16:52:40.812Z,9.77
2019-02-16T16:55:13.586Z,12.60
2019-02-16T16:57:43.648Z,11.20
2019-02-16T17:00:22.659Z,18.17
2019-02-16T17:02:58.481Z,15.57
2019-02-16T17:05:28.607Z,14.07
2019-02-16T17:08:14.877Z,19.53
2019-02-16T17:10:53.668Z,19.53
2019-02-16T17:13:38.801Z,18.90
2019-02-16T17:16:08.525Z,17.40
2019-02-16T17:18:41.563Z,15.10
2019-02-16T17:21:11.622Z,23.30
2019-02-16T17:23:44.425Z,31.07
2019-02-16T17:26:17.353Z,25.53
2019-02-16T17:28:47.653Z,22.07
2019-02-16T17:31:17.710Z,35.33
2019-02-16T17:36:42.248Z,25.57
2019-02-16T17:39:28.480Z,24.87
2019-02-16T17:42:07.280Z,28.40
2019-02-16T17:44:37.349Z,15.20
2019-02-16T17:47:13.513Z,21.03
2019-02-16T17:49:55.242Z,26.97
2019-02-16T17:52:25.295Z,21.40
2019-02-16T17:55:11.819Z,18.57
2019-02-16T17:57:41.621Z,22.17
2019-02-16T18:00:25.728Z,19.07
2019-02-16T18:03:05.140Z,20.63
2019-02-16T18:05:41.388Z,21.03
2019-02-16T18:08:20.204Z,15.07
2019-02-16T18:10:53.004Z,10.70
2019-02-16T18:13:25.920Z,10.80
2019-02-16T18:15:55.981Z,11.00
2019-02-16T18:18:34.480Z,15.40
2019-02-16T18:21:07.242Z,11.93
2019-02-16T18:23:53.625Z,18.67
2019-02-16T18:26:35.724Z,22.83
2019-02-16T18:29:05.465Z,25.73
2019-02-16T18:31:35.182Z,20.83
2019-02-16T18:34:14.384Z,17.83
2019-02-16T18:36:56.705Z,12.63
2019-02-16T18:39:29.528Z,13.80
2019-02-16T18:41:59.610Z,17.53
2019-02-16T18:44:32.663Z,14.13
2019-02-16T18:47:11.601Z,20.27
2019-02-16T18:49:50.493Z,19.63
2019-02-16T18:52:22.980Z,15.47
2019-02-16T18:54:53.051Z,20.97
2019-02-16T18:57:23.121Z,17.07
2019-02-16T18:59:59.172Z,25.57
2019-02-16T19:02:35.029Z,17.40
2019-02-16T19:05:11.293Z,19.97
2019-02-16T19:07:57.607Z,20.53
2019-02-16T19:10:27.729Z,22.97
2019-02-16T19:13:14.219Z,16.30
2019-02-16T19:15:47.053Z,22.40
2019-02-16T19:18:25.896Z,17.00
2019-02-16T19:21:01.747Z,15.30
2019-02-16T19:23:32.446Z,19.50
2019-02-16T19:26:06.171Z,19.63
2019-02-16T19:28:46.199Z,19.40
2019-02-16T19:31:28.376Z,18.13
2019-02-16T19:34:04.396Z,22.43
2019-02-16T19:36:34.453Z,18.23
2019-02-16T19:39:07.689Z,17.27
2019-02-16T19:41:37.813Z,17.60
2019-02-16T19:44:13.845Z,15.57
2019-02-16T19:46:43.912Z,18.50
2019-02-16T19:49:32.605Z,19.07
2019-02-16T19:52:02.676Z,17.20
2019-02-16T19:54:44.700Z,18.63
2019-02-16T19:57:27.291Z,17.40
2019-02-16T20:00:12.183Z,17.17
2019-02-16T20:02:54.435Z,18.53
2019-02-16T20:05:24.489Z,16.83
2019-02-16T20:07:54.560Z,18.27
2019-02-16T20:10:43.071Z,18.10
2019-02-16T20:13:28.140Z,18.70
2019-02-16T20:15:58.212Z,16.63
2019-02-16T20:18:28.266Z,18.37
2019-02-16T20:21:07.584Z,18.87
2019-02-16T20:23:47.006Z,19.00
2019-02-16T20:26:19.841Z,14.53
2019-02-16T20:28:52.937Z,16.47
2019-02-16T20:31:35.040Z,16.47
2019-02-16T20:34:07.540Z,15.03
2019-02-16T20:36:40.246Z,14.83
2019-02-16T20:39:10.292Z,13.13
2019-02-16T20:41:43.132Z,15.57
2019-02-16T20:44:25.030Z,13.23
2019-02-16T20:46:55.073Z,13.23
2019-02-16T20:49:28.443Z,18.53
2019-02-16T20:51:58.766Z,12.13
2019-02-16T20:54:45.072Z,14.97
2019-02-16T20:57:15.140Z,19.13
2019-02-16T20:59:45.201Z,14.20
2019-02-16T21:02:17.970Z,12.10
2019-02-16T21:04:53.756Z,18.13
2019-02-16T21:07:26.784Z,15.07
2019-02-16T21:09:56.837Z,15.57
2019-02-16T21:12:26.900Z,14.57
2019-02-16T21:14:59.630Z,14.60
2019-02-16T21:17:29.693Z,13.93
2019-02-16T21:20:05.743Z,11.87
2019-02-16T21:22:36.068Z,14.43
2019-02-16T21:25:07.140Z,15.63
2019-02-16T21:27:37.204Z,13.60
2019-02-16T21:30:22.243Z,12.27
2019-02-16T21:32:58.460Z,13.33
2019-02-16T21:35:34.700Z,13.90
2019-02-16T21:38:21.500Z,21.40
2019-02-16T21:41:00.208Z,19.90
2019-02-16T21:43:30.272Z,17.90
2019-02-16T21:46:03.022Z,18.27
2019-02-16T21:48:33.085Z,15.73
2019-02-16T21:51:19.779Z,19.43
2019-02-16T21:53:52.520Z,18.50
2019-02-16T21:56:34.457Z,23.13
2019-02-16T21:59:07.695Z,18.90
2019-02-16T22:01:46.992Z,20.00
2019-02-16T22:04:17.070Z,25.73
2019-02-16T22:06:49.641Z,17.83
2019-02-16T22:09:19.705Z,19.20
2019-02-16T22:11:55.749Z,16.90
2019-02-16T22:14:43.772Z,19.03
2019-02-16T22:17:12.193Z,19.03
2019-02-16T22:19:40.941Z,20.83
2019-02-16T22:22:09.357Z,20.33
2019-02-16T22:24:37.779Z,21.97
2019-02-16T22:27:06.201Z,19.13
2019-02-16T22:29:34.651Z,18.00
2019-02-16T22:32:03.213Z,20.17
2019-02-16T22:34:31.646Z,18.97
2019-02-16T22:37:00.070Z,18.77
2019-02-16T22:39:28.493Z,19.47
2019-02-16T22:41:56.904Z,18.23
2019-02-16T22:44:25.332Z,20.83
2019-02-16T22:46:53.752Z,19.03
2019-02-16T22:49:22.248Z,22.90
2019-02-16T22:51:50.663Z,17.93
2019-02-16T22:54:19.093Z,18.70
2019-02-16T22:56:47.504Z,20.03
2019-02-16T22:59:15.972Z,18.90
2019-02-16T23:02:04.466Z,16.97
2019-02-16T23:04:32.901Z,20.10
2019-02-16T23:07:01.314Z,18.40
2019-02-16T23:09:30.210Z,22.57
2019-02-16T23:11:58.692Z,22.07
2019-02-16T23:14:27.205Z,19.03
2019-02-16T23:16:55.606Z,20.33
2019-02-16T23:19:24.020Z,20.13
2019-02-16T23:24:32.171Z,18.23
2019-02-16T23:27:00.612Z,18.67
2019-02-16T23:29:29.031Z,23.10
2019-02-16T23:31:57.452Z,17.73
2019-02-16T23:34:25.869Z,22.77
2019-02-16T23:36:54.292Z,21.90
2019-02-16T23:39:22.709Z,21.37
2019-02-16T23:41:51.133Z,18.77
2019-02-16T23:44:19.924Z,18.50
2019-02-16T23:46:48.362Z,21.30
2019-02-16T23:49:16.779Z,18.83
2019-02-16T23:51:45.201Z,18.87
2019-02-16T23:54:13.605Z,18.67
2019-02-16T23:56:42.325Z,21.50
2019-02-16T23:59:10.736Z,18.03
